sensor_id;sensor_type;location;lat;lon;timestamp;temperature;humidity
55083;DHT22;40978;52.850;6.506;2024-03-17T00:01:04;3.20;99.90
55083;DHT22;40978;52.850;6.506;2024-03-17T00:03:30;3.20;99.90
55083;DHT22;40978;52.850;6.506;2024-03-17T00:06:00;3.20;99.90
55083;DHT22;40978;52.850;6.506;2024-03-17T00:08:26;3.20;99.90
55083;DHT22;40978;52.850;6.506;2024-03-17T00:10:55;3.10;99.90
55083;DHT22;40978;52.850;6.506;2024-03-17T00:13:22;3.10;99.90
55083;DHT22;40978;52.850;6.506;2024-03-17T00:15:51;3.10;99.90
55083;DHT22;40978;52.850;6.506;2024-03-17T00:18:17;3.00;99.90
55083;DHT22;40978;52.850;6.506;2024-03-17T00:20:43;3.00;99.90
55083;DHT22;40978;52.850;6.506;2024-03-17T00:23:09;3.00;99.90
55083;DHT22;40978;52.850;6.506;2024-03-17T00:25:38;3.00;99.90
55083;DHT22;40978;52.850;6.506;2024-03-17T00:28:04;3.00;99.90
55083;DHT22;40978;52.850;6.506;2024-03-17T00:30:30;3.00;99.90
55083;DHT22;40978;52.850;6.506;2024-03-17T00:32:57;2.90;99.90
55083;DHT22;40978;52.850;6.506;2024-03-17T00:35:24;2.90;99.90
55083;DHT22;40978;52.850;6.506;2024-03-17T00:37:50;2.90;99.90
55083;DHT22;40978;52.850;6.506;2024-03-17T00:40:17;2.90;99.90
55083;DHT22;40978;52.850;6.506;2024-03-17T00:42:43;2.80;99.90
55083;DHT22;40978;52.850;6.506;2024-03-17T00:45:11;2.80;99.90
55083;DHT22;40978;52.850;6.506;2024-03-17T00:47:37;2.80;99.90
55083;DHT22;40978;52.850;6.506;2024-03-17T00:50:04;2.80;99.90
55083;DHT22;40978;52.850;6.506;2024-03-17T00:52:32;2.80;99.90
55083;DHT22;40978;52.850;6.506;2024-03-17T00:54:58;2.80;99.90
55083;DHT22;40978;52.850;6.506;2024-03-17T00:57:23;2.70;99.90
55083;DHT22;40978;52.850;6.506;2024-03-17T00:59:50;2.70;99.90
55083;DHT22;40978;52.850;6.506;2024-03-17T01:02:16;2.70;99.90
55083;DHT22;40978;52.850;6.506;2024-03-17T01:04:45;2.70;99.90
55083;DHT22;40978;52.850;6.506;2024-03-17T01:07:11;2.70;99.90
55083;DHT22;40978;52.850;6.506;2024-03-17T01:09:38;2.70;99.90
55083;DHT22;40978;52.850;6.506;2024-03-17T01:12:04;2.70;99.90
55083;DHT22;40978;52.850;6.506;2024-03-17T01:14:30;2.60;99.90
55083;DHT22;40978;52.850;6.506;2024-03-17T01:16:57;2.70;99.90
55083;DHT22;40978;52.850;6.506;2024-03-17T01:19:23;2.70;99.90
55083;DHT22;40978;52.850;6.506;2024-03-17T01:21:49;2.60;99.90
55083;DHT22;40978;52.850;6.506;2024-03-17T01:24:14;2.60;99.90
55083;DHT22;40978;52.850;6.506;2024-03-17T01:26:40;2.60;99.90
55083;DHT22;40978;52.850;6.506;2024-03-17T01:29:06;2.60;99.90
55083;DHT22;40978;52.850;6.506;2024-03-17T01:31:34;2.60;99.90
55083;DHT22;40978;52.850;6.506;2024-03-17T01:34:00;2.50;99.90
55083;DHT22;40978;52.850;6.506;2024-03-17T01:36:26;2.50;99.90
55083;DHT22;40978;52.850;6.506;2024-03-17T01:38:52;2.50;99.90
55083;DHT22;40978;52.850;6.506;2024-03-17T01:41:17;2.50;99.90
55083;DHT22;40978;52.850;6.506;2024-03-17T01:43:43;2.50;99.90
55083;DHT22;40978;52.850;6.506;2024-03-17T01:46:14;2.50;99.90
55083;DHT22;40978;52.850;6.506;2024-03-17T01:48:40;2.50;99.90
55083;DHT22;40978;52.850;6.506;2024-03-17T01:51:08;2.40;99.90
55083;DHT22;40978;52.850;6.506;2024-03-17T01:53:34;2.40;99.90
55083;DHT22;40978;52.850;6.506;2024-03-17T01:56:00;2.40;99.90
55083;DHT22;40978;52.850;6.506;2024-03-17T01:58:28;2.40;99.90
55083;DHT22;40978;52.850;6.506;2024-03-17T02:00:56;2.40;99.90
55083;DHT22;40978;52.850;6.506;2024-03-17T02:03:22;2.40;99.90
55083;DHT22;40978;52.850;6.506;2024-03-17T02:05:48;2.30;99.90
55083;DHT22;40978;52.850;6.506;2024-03-17T02:08:14;2.30;99.90
55083;DHT22;40978;52.850;6.506;2024-03-17T02:10:39;2.30;99.90
55083;DHT22;40978;52.850;6.506;2024-03-17T02:13:05;2.30;99.90
55083;DHT22;40978;52.850;6.506;2024-03-17T02:15:32;2.20;99.90
55083;DHT22;40978;52.850;6.506;2024-03-17T02:17:58;2.20;99.90
55083;DHT22;40978;52.850;6.506;2024-03-17T02:20:24;2.10;99.90
55083;DHT22;40978;52.850;6.506;2024-03-17T02:23:09;2.20;99.90
55083;DHT22;40978;52.850;6.506;2024-03-17T02:25:34;2.20;99.90
55083;DHT22;40978;52.850;6.506;2024-03-17T02:28:01;2.20;99.90
55083;DHT22;40978;52.850;6.506;2024-03-17T02:30:26;2.20;99.90
55083;DHT22;40978;52.850;6.506;2024-03-17T02:32:56;2.20;99.90
55083;DHT22;40978;52.850;6.506;2024-03-17T02:35:23;2.10;99.90
55083;DHT22;40978;52.850;6.506;2024-03-17T02:37:49;2.10;99.90
55083;DHT22;40978;52.850;6.506;2024-03-17T02:40:14;2.10;99.90
55083;DHT22;40978;52.850;6.506;2024-03-17T02:42:41;2.10;99.90
55083;DHT22;40978;52.850;6.506;2024-03-17T02:45:08;2.10;99.90
55083;DHT22;40978;52.850;6.506;2024-03-17T02:47:34;2.10;99.90
55083;DHT22;40978;52.850;6.506;2024-03-17T02:50:01;2.10;99.90
55083;DHT22;40978;52.850;6.506;2024-03-17T02:52:26;2.10;99.90
55083;DHT22;40978;52.850;6.506;2024-03-17T02:54:52;2.00;99.90
55083;DHT22;40978;52.850;6.506;2024-03-17T02:57:18;2.10;99.90
55083;DHT22;40978;52.850;6.506;2024-03-17T02:59:44;2.10;99.90
55083;DHT22;40978;52.850;6.506;2024-03-17T03:02:12;2.10;99.90
55083;DHT22;40978;52.850;6.506;2024-03-17T03:04:37;2.10;99.90
55083;DHT22;40978;52.850;6.506;2024-03-17T03:07:03;2.10;99.90
55083;DHT22;40978;52.850;6.506;2024-03-17T03:09:29;2.10;99.90
55083;DHT22;40978;52.850;6.506;2024-03-17T03:12:01;2.10;99.90
55083;DHT22;40978;52.850;6.506;2024-03-17T03:14:30;2.10;99.90
55083;DHT22;40978;52.850;6.506;2024-03-17T03:16:56;2.10;99.90
55083;DHT22;40978;52.850;6.506;2024-03-17T03:19:21;2.10;99.90
55083;DHT22;40978;52.850;6.506;2024-03-17T03:21:47;2.00;99.90
55083;DHT22;40978;52.850;6.506;2024-03-17T03:24:16;2.10;99.90
55083;DHT22;40978;52.850;6.506;2024-03-17T03:26:43;2.10;99.90
55083;DHT22;40978;52.850;6.506;2024-03-17T03:29:12;2.10;99.90
55083;DHT22;40978;52.850;6.506;2024-03-17T03:31:40;2.10;99.90
55083;DHT22;40978;52.850;6.506;2024-03-17T03:34:06;2.00;99.90
55083;DHT22;40978;52.850;6.506;2024-03-17T03:36:34;2.10;99.90
55083;DHT22;40978;52.850;6.506;2024-03-17T03:39:01;2.10;99.90
55083;DHT22;40978;52.850;6.506;2024-03-17T03:41:27;2.10;99.90
55083;DHT22;40978;52.850;6.506;2024-03-17T03:43:53;2.10;99.90
55083;DHT22;40978;52.850;6.506;2024-03-17T03:46:19;2.10;99.90
55083;DHT22;40978;52.850;6.506;2024-03-17T03:48:46;2.20;99.90
55083;DHT22;40978;52.850;6.506;2024-03-17T03:51:11;2.20;99.90
55083;DHT22;40978;52.850;6.506;2024-03-17T03:53:37;2.20;99.90
55083;DHT22;40978;52.850;6.506;2024-03-17T03:56:05;2.20;99.90
55083;DHT22;40978;52.850;6.506;2024-03-17T03:58:37;2.20;99.90
55083;DHT22;40978;52.850;6.506;2024-03-17T04:01:09;2.20;99.90
55083;DHT22;40978;52.850;6.506;2024-03-17T04:03:37;2.20;99.90
55083;DHT22;40978;52.850;6.506;2024-03-17T04:06:09;2.30;99.90
55083;DHT22;40978;52.850;6.506;2024-03-17T04:08:37;2.20;99.90
55083;DHT22;40978;52.850;6.506;2024-03-17T04:11:03;2.30;99.90
55083;DHT22;40978;52.850;6.506;2024-03-17T04:13:30;2.30;99.90
55083;DHT22;40978;52.850;6.506;2024-03-17T04:15:56;2.40;99.90
55083;DHT22;40978;52.850;6.506;2024-03-17T04:18:23;2.40;99.90
55083;DHT22;40978;52.850;6.506;2024-03-17T04:20:53;2.50;99.90
55083;DHT22;40978;52.850;6.506;2024-03-17T04:23:22;2.60;99.90
55083;DHT22;40978;52.850;6.506;2024-03-17T04:25:51;2.60;99.90
55083;DHT22;40978;52.850;6.506;2024-03-17T04:28:17;2.60;99.90
55083;DHT22;40978;52.850;6.506;2024-03-17T04:30:42;2.70;99.90
55083;DHT22;40978;52.850;6.506;2024-03-17T04:33:09;2.70;99.90
55083;DHT22;40978;52.850;6.506;2024-03-17T04:35:37;2.70;99.90
55083;DHT22;40978;52.850;6.506;2024-03-17T04:38:03;2.80;99.90
55083;DHT22;40978;52.850;6.506;2024-03-17T04:40:29;2.80;99.90
55083;DHT22;40978;52.850;6.506;2024-03-17T04:42:56;2.90;99.90
55083;DHT22;40978;52.850;6.506;2024-03-17T04:45:21;2.90;99.90
55083;DHT22;40978;52.850;6.506;2024-03-17T04:47:47;3.00;99.90
55083;DHT22;40978;52.850;6.506;2024-03-17T04:50:13;3.00;99.90
55083;DHT22;40978;52.850;6.506;2024-03-17T04:52:39;3.00;99.90
55083;DHT22;40978;52.850;6.506;2024-03-17T04:55:04;3.10;99.90
55083;DHT22;40978;52.850;6.506;2024-03-17T04:57:30;3.10;99.90
55083;DHT22;40978;52.850;6.506;2024-03-17T04:59:56;3.10;99.90
55083;DHT22;40978;52.850;6.506;2024-03-17T05:02:22;3.20;99.90
55083;DHT22;40978;52.850;6.506;2024-03-17T05:04:50;3.20;99.90
55083;DHT22;40978;52.850;6.506;2024-03-17T05:07:15;3.30;99.90
55083;DHT22;40978;52.850;6.506;2024-03-17T05:09:41;3.30;99.90
55083;DHT22;40978;52.850;6.506;2024-03-17T05:12:09;3.30;99.90
55083;DHT22;40978;52.850;6.506;2024-03-17T05:14:35;3.40;99.90
55083;DHT22;40978;52.850;6.506;2024-03-17T05:17:01;3.40;99.90
55083;DHT22;40978;52.850;6.506;2024-03-17T05:19:27;3.40;99.90
55083;DHT22;40978;52.850;6.506;2024-03-17T05:21:53;3.50;99.90
55083;DHT22;40978;52.850;6.506;2024-03-17T05:24:18;3.50;99.90
55083;DHT22;40978;52.850;6.506;2024-03-17T05:26:45;3.50;99.90
55083;DHT22;40978;52.850;6.506;2024-03-17T05:29:11;3.50;99.90
55083;DHT22;40978;52.850;6.506;2024-03-17T05:31:37;3.60;99.90
55083;DHT22;40978;52.850;6.506;2024-03-17T05:34:06;3.60;99.90
55083;DHT22;40978;52.850;6.506;2024-03-17T05:36:31;3.50;99.90
55083;DHT22;40978;52.850;6.506;2024-03-17T05:38:59;3.60;99.90
55083;DHT22;40978;52.850;6.506;2024-03-17T05:41:25;3.60;99.90
55083;DHT22;40978;52.850;6.506;2024-03-17T05:43:51;3.60;99.90
55083;DHT22;40978;52.850;6.506;2024-03-17T05:46:17;3.60;99.90
55083;DHT22;40978;52.850;6.506;2024-03-17T05:48:43;3.70;99.90
55083;DHT22;40978;52.850;6.506;2024-03-17T05:51:12;3.70;99.90
55083;DHT22;40978;52.850;6.506;2024-03-17T05:53:39;3.70;99.90
55083;DHT22;40978;52.850;6.506;2024-03-17T05:56:10;3.70;99.90
55083;DHT22;40978;52.850;6.506;2024-03-17T05:58:37;3.80;99.90
55083;DHT22;40978;52.850;6.506;2024-03-17T06:01:03;3.80;99.90
55083;DHT22;40978;52.850;6.506;2024-03-17T06:03:29;3.80;99.90
55083;DHT22;40978;52.850;6.506;2024-03-17T06:05:55;3.90;99.90
55083;DHT22;40978;52.850;6.506;2024-03-17T06:08:20;3.90;99.90
55083;DHT22;40978;52.850;6.506;2024-03-17T06:10:48;4.00;99.90
55083;DHT22;40978;52.850;6.506;2024-03-17T06:13:14;4.00;99.90
55083;DHT22;40978;52.850;6.506;2024-03-17T06:15:44;4.10;99.90
55083;DHT22;40978;52.850;6.506;2024-03-17T06:18:12;4.10;99.90
55083;DHT22;40978;52.850;6.506;2024-03-17T06:20:44;4.20;99.90
55083;DHT22;40978;52.850;6.506;2024-03-17T06:23:11;4.20;99.90
55083;DHT22;40978;52.850;6.506;2024-03-17T06:25:41;4.30;99.90
55083;DHT22;40978;52.850;6.506;2024-03-17T06:28:08;4.30;99.90
55083;DHT22;40978;52.850;6.506;2024-03-17T06:30:33;4.40;99.90
55083;DHT22;40978;52.850;6.506;2024-03-17T06:33:01;4.50;99.90
55083;DHT22;40978;52.850;6.506;2024-03-17T06:35:27;4.50;99.90
55083;DHT22;40978;52.850;6.506;2024-03-17T06:37:59;4.60;99.90
55083;DHT22;40978;52.850;6.506;2024-03-17T06:40:25;4.70;99.90
55083;DHT22;40978;52.850;6.506;2024-03-17T06:42:51;4.70;99.90
55083;DHT22;40978;52.850;6.506;2024-03-17T06:45:17;4.80;99.90
55083;DHT22;40978;52.850;6.506;2024-03-17T06:47:46;4.80;99.90
55083;DHT22;40978;52.850;6.506;2024-03-17T06:50:12;4.90;99.90
55083;DHT22;40978;52.850;6.506;2024-03-17T06:52:38;4.90;99.90
55083;DHT22;40978;52.850;6.506;2024-03-17T06:55:04;5.10;99.90
55083;DHT22;40978;52.850;6.506;2024-03-17T06:57:32;5.00;99.90
55083;DHT22;40978;52.850;6.506;2024-03-17T07:00:02;5.10;99.90
55083;DHT22;40978;52.850;6.506;2024-03-17T07:02:33;5.10;99.90
55083;DHT22;40978;52.850;6.506;2024-03-17T07:04:59;5.20;99.90
55083;DHT22;40978;52.850;6.506;2024-03-17T07:07:28;5.20;99.90
55083;DHT22;40978;52.850;6.506;2024-03-17T07:09:54;5.30;99.90
55083;DHT22;40978;52.850;6.506;2024-03-17T07:12:20;5.40;99.90
55083;DHT22;40978;52.850;6.506;2024-03-17T07:14:46;5.40;99.90
55083;DHT22;40978;52.850;6.506;2024-03-17T07:17:11;5.50;99.90
55083;DHT22;40978;52.850;6.506;2024-03-17T07:19:37;5.50;99.90
55083;DHT22;40978;52.850;6.506;2024-03-17T07:22:03;5.50;99.90
55083;DHT22;40978;52.850;6.506;2024-03-17T07:24:29;5.60;99.90
55083;DHT22;40978;52.850;6.506;2024-03-17T07:26:55;5.70;99.90
55083;DHT22;40978;52.850;6.506;2024-03-17T07:29:21;5.90;99.90
55083;DHT22;40978;52.850;6.506;2024-03-17T07:31:47;6.00;99.90
55083;DHT22;40978;52.850;6.506;2024-03-17T07:34:13;6.10;99.90
55083;DHT22;40978;52.850;6.506;2024-03-17T07:36:38;6.30;99.90
55083;DHT22;40978;52.850;6.506;2024-03-17T07:39:05;6.40;99.90
55083;DHT22;40978;52.850;6.506;2024-03-17T07:41:32;6.60;99.90
55083;DHT22;40978;52.850;6.506;2024-03-17T07:43:58;6.80;99.90
55083;DHT22;40978;52.850;6.506;2024-03-17T07:46:24;7.00;99.90
55083;DHT22;40978;52.850;6.506;2024-03-17T07:48:49;7.30;99.90
55083;DHT22;40978;52.850;6.506;2024-03-17T07:51:17;7.40;99.90
55083;DHT22;40978;52.850;6.506;2024-03-17T07:53:44;7.70;99.90
55083;DHT22;40978;52.850;6.506;2024-03-17T07:56:14;8.00;99.90
55083;DHT22;40978;52.850;6.506;2024-03-17T07:58:41;8.20;99.90
55083;DHT22;40978;52.850;6.506;2024-03-17T08:01:09;8.20;99.90
55083;DHT22;40978;52.850;6.506;2024-03-17T08:03:37;8.00;99.90
55083;DHT22;40978;52.850;6.506;2024-03-17T08:06:06;8.00;99.90
55083;DHT22;40978;52.850;6.506;2024-03-17T08:08:33;7.90;99.90
55083;DHT22;40978;52.850;6.506;2024-03-17T08:10:59;7.90;99.90
55083;DHT22;40978;52.850;6.506;2024-03-17T08:13:26;8.00;99.90
55083;DHT22;40978;52.850;6.506;2024-03-17T08:15:59;8.00;99.90
55083;DHT22;40978;52.850;6.506;2024-03-17T08:18:25;8.10;99.90
55083;DHT22;40978;52.850;6.506;2024-03-17T08:20:53;8.20;99.90
55083;DHT22;40978;52.850;6.506;2024-03-17T08:23:20;8.50;99.90
55083;DHT22;40978;52.850;6.506;2024-03-17T08:25:59;8.50;99.90
55083;DHT22;40978;52.850;6.506;2024-03-17T08:28:26;8.50;99.90
55083;DHT22;40978;52.850;6.506;2024-03-17T08:30:57;8.40;99.90
55083;DHT22;40978;52.850;6.506;2024-03-17T08:33:24;8.40;99.90
55083;DHT22;40978;52.850;6.506;2024-03-17T08:35:57;8.40;99.90
55083;DHT22;40978;52.850;6.506;2024-03-17T08:38:24;8.50;99.90
55083;DHT22;40978;52.850;6.506;2024-03-17T08:40:54;8.60;99.90
55083;DHT22;40978;52.850;6.506;2024-03-17T08:43:20;8.80;99.90
55083;DHT22;40978;52.850;6.506;2024-03-17T08:46:05;9.20;99.90
55083;DHT22;40978;52.850;6.506;2024-03-17T08:48:33;9.60;99.90
55083;DHT22;40978;52.850;6.506;2024-03-17T08:51:00;9.80;99.90
55083;DHT22;40978;52.850;6.506;2024-03-17T08:53:27;9.90;99.90
55083;DHT22;40978;52.850;6.506;2024-03-17T08:55:54;9.70;99.90
55083;DHT22;40978;52.850;6.506;2024-03-17T08:58:20;9.60;99.90
55083;DHT22;40978;52.850;6.506;2024-03-17T09:00:45;9.50;99.90
55083;DHT22;40978;52.850;6.506;2024-03-17T09:03:12;9.50;99.90
55083;DHT22;40978;52.850;6.506;2024-03-17T09:05:48;9.60;99.90
55083;DHT22;40978;52.850;6.506;2024-03-17T09:08:18;9.90;99.90
55083;DHT22;40978;52.850;6.506;2024-03-17T09:10:52;10.30;99.90
55083;DHT22;40978;52.850;6.506;2024-03-17T09:13:20;10.80;99.90
55083;DHT22;40978;52.850;6.506;2024-03-17T09:15:52;11.50;99.90
55083;DHT22;40978;52.850;6.506;2024-03-17T09:18:18;12.00;99.90
55083;DHT22;40978;52.850;6.506;2024-03-17T09:20:44;12.40;99.90
55083;DHT22;40978;52.850;6.506;2024-03-17T09:23:11;12.90;99.90
55083;DHT22;40978;52.850;6.506;2024-03-17T09:25:37;13.50;99.90
55083;DHT22;40978;52.850;6.506;2024-03-17T09:28:03;13.70;99.90
55083;DHT22;40978;52.850;6.506;2024-03-17T09:30:29;13.60;99.90
55083;DHT22;40978;52.850;6.506;2024-03-17T09:32:54;13.30;99.90
55083;DHT22;40978;52.850;6.506;2024-03-17T09:35:20;12.90;99.90
55083;DHT22;40978;52.850;6.506;2024-03-17T09:37:46;12.40;99.90
55083;DHT22;40978;52.850;6.506;2024-03-17T09:40:15;11.90;99.90
55083;DHT22;40978;52.850;6.506;2024-03-17T09:42:41;11.70;99.90
55083;DHT22;40978;52.850;6.506;2024-03-17T09:45:10;11.60;99.90
55083;DHT22;40978;52.850;6.506;2024-03-17T09:47:36;11.70;99.90
55083;DHT22;40978;52.850;6.506;2024-03-17T09:50:02;11.70;99.90
55083;DHT22;40978;52.850;6.506;2024-03-17T09:52:29;11.80;99.90
55083;DHT22;40978;52.850;6.506;2024-03-17T09:55:01;11.70;99.90
55083;DHT22;40978;52.850;6.506;2024-03-17T09:57:27;11.70;99.90
55083;DHT22;40978;52.850;6.506;2024-03-17T09:59:54;11.60;99.90
55083;DHT22;40978;52.850;6.506;2024-03-17T10:02:21;11.50;99.90
55083;DHT22;40978;52.850;6.506;2024-03-17T10:04:47;11.40;99.90
55083;DHT22;40978;52.850;6.506;2024-03-17T10:07:13;11.40;99.90
55083;DHT22;40978;52.850;6.506;2024-03-17T10:09:43;11.40;99.90
55083;DHT22;40978;52.850;6.506;2024-03-17T10:12:28;11.40;99.90
55083;DHT22;40978;52.850;6.506;2024-03-17T10:15:01;11.50;99.90
55083;DHT22;40978;52.850;6.506;2024-03-17T10:17:33;11.60;99.90
55083;DHT22;40978;52.850;6.506;2024-03-17T10:20:17;11.70;99.90
55083;DHT22;40978;52.850;6.506;2024-03-17T10:22:59;11.80;99.90
55083;DHT22;40978;52.850;6.506;2024-03-17T10:25:26;11.80;99.90
55083;DHT22;40978;52.850;6.506;2024-03-17T10:27:53;11.80;99.90
55083;DHT22;40978;52.850;6.506;2024-03-17T10:30:20;11.80;99.90
55083;DHT22;40978;52.850;6.506;2024-03-17T10:32:52;11.80;99.90
55083;DHT22;40978;52.850;6.506;2024-03-17T10:35:48;11.70;99.90
55083;DHT22;40978;52.850;6.506;2024-03-17T10:38:14;11.60;99.90
55083;DHT22;40978;52.850;6.506;2024-03-17T10:40:42;11.60;99.90
55083;DHT22;40978;52.850;6.506;2024-03-17T10:43:10;11.60;99.90
55083;DHT22;40978;52.850;6.506;2024-03-17T10:45:37;11.50;99.90
55083;DHT22;40978;52.850;6.506;2024-03-17T10:48:08;11.50;99.90
55083;DHT22;40978;52.850;6.506;2024-03-17T10:50:38;11.40;99.90
55083;DHT22;40978;52.850;6.506;2024-03-17T10:53:05;11.40;99.90
55083;DHT22;40978;52.850;6.506;2024-03-17T10:55:45;11.50;99.90
55083;DHT22;40978;52.850;6.506;2024-03-17T10:58:26;11.40;99.90
55083;DHT22;40978;52.850;6.506;2024-03-17T11:00:57;11.50;99.90
55083;DHT22;40978;52.850;6.506;2024-03-17T11:03:24;11.50;99.90
55083;DHT22;40978;52.850;6.506;2024-03-17T11:05:51;11.50;99.90
55083;DHT22;40978;52.850;6.506;2024-03-17T11:08:18;11.50;99.90
55083;DHT22;40978;52.850;6.506;2024-03-17T11:10:51;11.50;99.90
55083;DHT22;40978;52.850;6.506;2024-03-17T11:13:27;11.50;99.90
55083;DHT22;40978;52.850;6.506;2024-03-17T11:15:54;11.50;99.90
55083;DHT22;40978;52.850;6.506;2024-03-17T11:23:28;11.40;99.90
55083;DHT22;40978;52.850;6.506;2024-03-17T11:25:54;11.40;99.90
55083;DHT22;40978;52.850;6.506;2024-03-17T11:31:33;11.50;99.90
55083;DHT22;40978;52.850;6.506;2024-03-17T11:33:59;11.50;99.90
55083;DHT22;40978;52.850;6.506;2024-03-17T11:39:05;11.80;99.90
55083;DHT22;40978;52.850;6.506;2024-03-17T11:41:49;11.90;99.90
55083;DHT22;40978;52.850;6.506;2024-03-17T11:46:54;12.00;99.90
55083;DHT22;40978;52.850;6.506;2024-03-17T11:49:36;12.20;99.90
55083;DHT22;40978;52.850;6.506;2024-03-17T11:52:15;12.30;99.90
55083;DHT22;40978;52.850;6.506;2024-03-17T11:54:45;12.50;99.90
55083;DHT22;40978;52.850;6.506;2024-03-17T11:57:20;12.60;99.90
55083;DHT22;40978;52.850;6.506;2024-03-17T11:59:48;12.60;99.90
55083;DHT22;40978;52.850;6.506;2024-03-17T12:02:20;12.60;99.90
55083;DHT22;40978;52.850;6.506;2024-03-17T12:04:48;12.60;99.90
55083;DHT22;40978;52.850;6.506;2024-03-17T12:07:18;12.50;99.90
55083;DHT22;40978;52.850;6.506;2024-03-17T12:09:45;12.50;99.90
55083;DHT22;40978;52.850;6.506;2024-03-17T12:12:22;12.40;99.90
55083;DHT22;40978;52.850;6.506;2024-03-17T12:14:49;12.30;99.90
55083;DHT22;40978;52.850;6.506;2024-03-17T12:17:22;12.20;99.90
55083;DHT22;40978;52.850;6.506;2024-03-17T12:19:48;12.10;99.90
55083;DHT22;40978;52.850;6.506;2024-03-17T12:22:18;12.10;99.90
55083;DHT22;40978;52.850;6.506;2024-03-17T12:24:48;12.00;99.90
55083;DHT22;40978;52.850;6.506;2024-03-17T12:27:19;12.00;99.90
55083;DHT22;40978;52.850;6.506;2024-03-17T12:29:47;12.00;99.90
55083;DHT22;40978;52.850;6.506;2024-03-17T12:32:18;12.00;99.90
55083;DHT22;40978;52.850;6.506;2024-03-17T12:34:50;12.00;99.90
55083;DHT22;40978;52.850;6.506;2024-03-17T12:37:20;12.00;99.90
55083;DHT22;40978;52.850;6.506;2024-03-17T12:39:46;12.00;99.90
55083;DHT22;40978;52.850;6.506;2024-03-17T12:42:16;12.10;99.90
55083;DHT22;40978;52.850;6.506;2024-03-17T12:44:58;12.10;99.90
55083;DHT22;40978;52.850;6.506;2024-03-17T12:47:25;12.10;99.90
55083;DHT22;40978;52.850;6.506;2024-03-17T12:49:56;12.20;99.90
55083;DHT22;40978;52.850;6.506;2024-03-17T12:55:07;12.30;99.90
55083;DHT22;40978;52.850;6.506;2024-03-17T13:00:45;12.40;99.90
55083;DHT22;40978;52.850;6.506;2024-03-17T13:03:25;12.50;99.90
55083;DHT22;40978;52.850;6.506;2024-03-17T13:05:52;12.60;99.90
55083;DHT22;40978;52.850;6.506;2024-03-17T13:08:17;12.60;99.90
55083;DHT22;40978;52.850;6.506;2024-03-17T13:10:43;12.60;99.90
55083;DHT22;40978;52.850;6.506;2024-03-17T13:13:10;12.70;99.90
55083;DHT22;40978;52.850;6.506;2024-03-17T13:15:38;12.60;99.90
55083;DHT22;40978;52.850;6.506;2024-03-17T13:18:05;12.60;99.90
55083;DHT22;40978;52.850;6.506;2024-03-17T13:20:34;12.60;99.90
55083;DHT22;40978;52.850;6.506;2024-03-17T13:23:00;12.60;99.90
55083;DHT22;40978;52.850;6.506;2024-03-17T13:25:30;12.50;99.90
55083;DHT22;40978;52.850;6.506;2024-03-17T13:28:00;12.60;99.90
55083;DHT22;40978;52.850;6.506;2024-03-17T13:30:26;12.50;99.90
55083;DHT22;40978;52.850;6.506;2024-03-17T13:32:54;12.50;99.90
55083;DHT22;40978;52.850;6.506;2024-03-17T13:35:28;12.50;99.90
55083;DHT22;40978;52.850;6.506;2024-03-17T13:37:57;12.40;99.90
55083;DHT22;40978;52.850;6.506;2024-03-17T13:40:27;12.40;99.90
55083;DHT22;40978;52.850;6.506;2024-03-17T13:42:55;12.30;99.90
55083;DHT22;40978;52.850;6.506;2024-03-17T13:45:22;12.40;99.90
55083;DHT22;40978;52.850;6.506;2024-03-17T13:48:02;12.40;99.90
55083;DHT22;40978;52.850;6.506;2024-03-17T13:50:29;12.40;99.90
55083;DHT22;40978;52.850;6.506;2024-03-17T13:52:56;12.40;99.90
55083;DHT22;40978;52.850;6.506;2024-03-17T13:55:23;12.40;99.90
55083;DHT22;40978;52.850;6.506;2024-03-17T13:57:54;12.40;99.90
55083;DHT22;40978;52.850;6.506;2024-03-17T14:00:22;12.40;99.90
55083;DHT22;40978;52.850;6.506;2024-03-17T14:02:49;12.30;99.90
55083;DHT22;40978;52.850;6.506;2024-03-17T14:05:17;12.30;99.90
55083;DHT22;40978;52.850;6.506;2024-03-17T14:07:43;12.30;99.90
55083;DHT22;40978;52.850;6.506;2024-03-17T14:10:11;12.20;99.90
55083;DHT22;40978;52.850;6.506;2024-03-17T14:12:37;12.20;99.90
55083;DHT22;40978;52.850;6.506;2024-03-17T14:15:05;12.20;99.90
55083;DHT22;40978;52.850;6.506;2024-03-17T14:17:31;12.20;99.90
55083;DHT22;40978;52.850;6.506;2024-03-17T14:19:57;12.20;99.90
55083;DHT22;40978;52.850;6.506;2024-03-17T14:22:22;12.10;99.90
55083;DHT22;40978;52.850;6.506;2024-03-17T14:24:48;12.20;99.90
55083;DHT22;40978;52.850;6.506;2024-03-17T14:27:15;12.20;99.90
55083;DHT22;40978;52.850;6.506;2024-03-17T14:29:43;12.20;99.90
55083;DHT22;40978;52.850;6.506;2024-03-17T14:32:08;12.10;99.90
55083;DHT22;40978;52.850;6.506;2024-03-17T14:34:34;12.10;99.90
55083;DHT22;40978;52.850;6.506;2024-03-17T14:37:03;12.00;99.90
55083;DHT22;40978;52.850;6.506;2024-03-17T14:39:32;12.00;99.90
55083;DHT22;40978;52.850;6.506;2024-03-17T14:41:58;12.00;99.90
55083;DHT22;40978;52.850;6.506;2024-03-17T14:44:24;11.90;99.90
55083;DHT22;40978;52.850;6.506;2024-03-17T14:46:50;11.90;99.90
55083;DHT22;40978;52.850;6.506;2024-03-17T14:49:21;11.80;99.90
55083;DHT22;40978;52.850;6.506;2024-03-17T14:51:47;11.80;99.90
55083;DHT22;40978;52.850;6.506;2024-03-17T14:54:13;11.80;99.90
55083;DHT22;40978;52.850;6.506;2024-03-17T14:56:39;11.80;99.90
55083;DHT22;40978;52.850;6.506;2024-03-17T14:59:08;11.80;99.90
55083;DHT22;40978;52.850;6.506;2024-03-17T15:01:34;11.80;99.90
55083;DHT22;40978;52.850;6.506;2024-03-17T15:04:00;11.80;99.90
55083;DHT22;40978;52.850;6.506;2024-03-17T15:06:25;11.70;99.90
55083;DHT22;40978;52.850;6.506;2024-03-17T15:08:53;11.70;99.90
55083;DHT22;40978;52.850;6.506;2024-03-17T15:11:18;11.70;99.90
55083;DHT22;40978;52.850;6.506;2024-03-17T15:13:44;11.70;99.90
55083;DHT22;40978;52.850;6.506;2024-03-17T15:16:11;11.70;99.90
55083;DHT22;40978;52.850;6.506;2024-03-17T15:18:38;11.70;99.90
55083;DHT22;40978;52.850;6.506;2024-03-17T15:21:04;11.70;99.90
55083;DHT22;40978;52.850;6.506;2024-03-17T15:23:32;11.70;99.90
55083;DHT22;40978;52.850;6.506;2024-03-17T15:26:04;11.70;99.90
55083;DHT22;40978;52.850;6.506;2024-03-17T15:28:42;11.60;99.90
55083;DHT22;40978;52.850;6.506;2024-03-17T15:31:09;11.70;99.90
55083;DHT22;40978;52.850;6.506;2024-03-17T15:33:36;11.70;99.90
55083;DHT22;40978;52.850;6.506;2024-03-17T15:36:07;11.70;99.90
55083;DHT22;40978;52.850;6.506;2024-03-17T15:38:37;11.70;99.90
55083;DHT22;40978;52.850;6.506;2024-03-17T15:41:07;11.60;99.90
55083;DHT22;40978;52.850;6.506;2024-03-17T15:43:37;11.60;99.90
55083;DHT22;40978;52.850;6.506;2024-03-17T15:46:17;11.60;99.90
55083;DHT22;40978;52.850;6.506;2024-03-17T15:48:46;11.50;99.90
55083;DHT22;40978;52.850;6.506;2024-03-17T15:51:12;11.60;99.90
55083;DHT22;40978;52.850;6.506;2024-03-17T15:53:38;11.60;99.90
55083;DHT22;40978;52.850;6.506;2024-03-17T15:56:04;11.60;99.90
55083;DHT22;40978;52.850;6.506;2024-03-17T15:58:32;11.50;99.90
55083;DHT22;40978;52.850;6.506;2024-03-17T16:00:58;11.50;99.90
55083;DHT22;40978;52.850;6.506;2024-03-17T16:03:29;11.50;99.90